sensor_id;sensor_type;location;lat;lon;timestamp;P1;durP1;ratioP1;P2;durP2;ratioP2
19619;SDS011;9957;52.282;21.110;2023-06-26T13:38:53;12.40;;;3.35;;
19619;SDS011;9957;52.282;21.110;2023-06-26T13:41:22;8.10;;;3.80;;
19619;SDS011;9957;52.282;21.110;2023-06-26T13:43:48;9.40;;;2.90;;
19619;SDS011;9957;52.282;21.110;2023-06-26T13:46:15;6.07;;;3.20;;
19619;SDS011;9957;52.282;21.110;2023-06-26T13:48:42;5.17;;;2.80;;
19619;SDS011;9957;52.282;21.110;2023-06-26T13:51:08;6.87;;;2.90;;
19619;SDS011;9957;52.282;21.110;2023-06-26T13:53:34;5.80;;;2.90;;
19619;SDS011;9957;52.282;21.110;2023-06-26T13:56:00;9.95;;;3.03;;
19619;SDS011;9957;52.282;21.110;2023-06-26T13:58:26;11.18;;;3.22;;
19619;SDS011;9957;52.282;21.110;2023-06-26T14:00:54;6.05;;;3.28;;
19619;SDS011;9957;52.282;21.110;2023-06-26T14:03:21;5.80;;;3.45;;
19619;SDS011;9957;52.282;21.110;2023-06-26T14:05:47;4.35;;;2.90;;
19619;SDS011;9957;52.282;21.110;2023-06-26T14:08:13;8.10;;;3.50;;
19619;SDS011;9957;52.282;21.110;2023-06-26T14:10:39;7.57;;;3.08;;
19619;SDS011;9957;52.282;21.110;2023-06-26T14:13:05;13.45;;;3.20;;
19619;SDS011;9957;52.282;21.110;2023-06-26T14:15:32;4.63;;;3.08;;
19619;SDS011;9957;52.282;21.110;2023-06-26T14:17:58;10.27;;;3.10;;
19619;SDS011;9957;52.282;21.110;2023-06-26T14:20:28;6.40;;;2.80;;
19619;SDS011;9957;52.282;21.110;2023-06-26T14:22:54;8.07;;;3.05;;
19619;SDS011;9957;52.282;21.110;2023-06-26T14:25:20;15.03;;;3.17;;
19619;SDS011;9957;52.282;21.110;2023-06-26T14:27:46;8.70;;;3.17;;
19619;SDS011;9957;52.282;21.110;2023-06-26T14:30:12;6.45;;;3.00;;
19619;SDS011;9957;52.282;21.110;2023-06-26T14:32:38;6.00;;;2.80;;
19619;SDS011;9957;52.282;21.110;2023-06-26T14:35:05;8.85;;;2.70;;
19619;SDS011;9957;52.282;21.110;2023-06-26T14:37:31;8.27;;;2.72;;
19619;SDS011;9957;52.282;21.110;2023-06-26T14:39:57;4.70;;;2.83;;
19619;SDS011;9957;52.282;21.110;2023-06-26T14:42:24;11.30;;;3.10;;
19619;SDS011;9957;52.282;21.110;2023-06-26T14:44:50;15.07;;;3.40;;
19619;SDS011;9957;52.282;21.110;2023-06-26T14:47:16;4.75;;;2.95;;
19619;SDS011;9957;52.282;21.110;2023-06-26T14:49:42;7.28;;;3.20;;
19619;SDS011;9957;52.282;21.110;2023-06-26T14:52:09;8.18;;;3.40;;
19619;SDS011;9957;52.282;21.110;2023-06-26T14:54:35;7.60;;;3.15;;
19619;SDS011;9957;52.282;21.110;2023-06-26T14:57:02;4.57;;;2.97;;
19619;SDS011;9957;52.282;21.110;2023-06-26T14:59:28;7.30;;;2.97;;
19619;SDS011;9957;52.282;21.110;2023-06-26T15:01:54;7.72;;;2.80;;
19619;SDS011;9957;52.282;21.110;2023-06-26T15:04:20;6.22;;;3.00;;
19619;SDS011;9957;52.282;21.110;2023-06-26T15:06:47;3.85;;;2.50;;
19619;SDS011;9957;52.282;21.110;2023-06-26T15:09:13;6.43;;;3.00;;
19619;SDS011;9957;52.282;21.110;2023-06-26T15:11:39;6.70;;;2.90;;
19619;SDS011;9957;52.282;21.110;2023-06-26T15:14:05;4.47;;;2.80;;
19619;SDS011;9957;52.282;21.110;2023-06-26T15:16:31;5.78;;;3.10;;
19619;SDS011;9957;52.282;21.110;2023-06-26T15:18:57;4.00;;;2.60;;
19619;SDS011;9957;52.282;21.110;2023-06-26T15:21:23;5.55;;;3.00;;
19619;SDS011;9957;52.282;21.110;2023-06-26T15:23:50;9.98;;;3.50;;
19619;SDS011;9957;52.282;21.110;2023-06-26T15:26:16;5.75;;;3.10;;
19619;SDS011;9957;52.282;21.110;2023-06-26T15:28:42;6.22;;;3.30;;
19619;SDS011;9957;52.282;21.110;2023-06-26T15:31:08;5.05;;;3.30;;
19619;SDS011;9957;52.282;21.110;2023-06-26T15:33:34;4.45;;;2.78;;
19619;SDS011;9957;52.282;21.110;2023-06-26T15:36:00;5.03;;;2.90;;
19619;SDS011;9957;52.282;21.110;2023-06-26T15:38:29;8.07;;;3.05;;
19619;SDS011;9957;52.282;21.110;2023-06-26T15:40:56;10.52;;;3.15;;
19619;SDS011;9957;52.282;21.110;2023-06-26T15:43:22;4.95;;;3.10;;
19619;SDS011;9957;52.282;21.110;2023-06-26T15:45:48;4.03;;;2.70;;
19619;SDS011;9957;52.282;21.110;2023-06-26T15:48:14;7.70;;;3.45;;
19619;SDS011;9957;52.282;21.110;2023-06-26T15:50:40;7.47;;;3.10;;
19619;SDS011;9957;52.282;21.110;2023-06-26T15:53:06;11.82;;;3.13;;
19619;SDS011;9957;52.282;21.110;2023-06-26T15:55:32;9.60;;;3.10;;
19619;SDS011;9957;52.282;21.110;2023-06-26T15:57:58;13.45;;;3.45;;
19619;SDS011;9957;52.282;21.110;2023-06-26T16:00:25;4.28;;;3.00;;
19619;SDS011;9957;52.282;21.110;2023-06-26T16:02:51;4.05;;;2.90;;
19619;SDS011;9957;52.282;21.110;2023-06-26T16:05:17;6.35;;;3.38;;
19619;SDS011;9957;52.282;21.110;2023-06-26T16:07:43;5.38;;;3.08;;
19619;SDS011;9957;52.282;21.110;2023-06-26T16:10:09;5.13;;;2.90;;
19619;SDS011;9957;52.282;21.110;2023-06-26T16:12:35;4.50;;;3.15;;
19619;SDS011;9957;52.282;21.110;2023-06-26T16:15:02;6.70;;;3.13;;
19619;SDS011;9957;52.282;21.110;2023-06-26T16:17:28;7.63;;;3.50;;
19619;SDS011;9957;52.282;21.110;2023-06-26T16:19:54;3.90;;;3.00;;
19619;SDS011;9957;52.282;21.110;2023-06-26T16:22:20;5.38;;;3.33;;
19619;SDS011;9957;52.282;21.110;2023-06-26T16:24:46;7.28;;;3.22;;
19619;SDS011;9957;52.282;21.110;2023-06-26T16:27:12;7.43;;;3.40;;
19619;SDS011;9957;52.282;21.110;2023-06-26T16:29:38;8.68;;;3.50;;
19619;SDS011;9957;52.282;21.110;2023-06-26T16:32:06;5.20;;;3.40;;
19619;SDS011;9957;52.282;21.110;2023-06-26T16:34:33;8.07;;;3.50;;
19619;SDS011;9957;52.282;21.110;2023-06-26T16:36:59;5.03;;;3.30;;
19619;SDS011;9957;52.282;21.110;2023-06-26T16:39:31;11.53;;;3.80;;
19619;SDS011;9957;52.282;21.110;2023-06-26T16:41:57;7.20;;;3.40;;
19619;SDS011;9957;52.282;21.110;2023-06-26T16:44:23;8.23;;;3.80;;
19619;SDS011;9957;52.282;21.110;2023-06-26T16:46:56;7.13;;;3.60;;
19619;SDS011;9957;52.282;21.110;2023-06-26T16:49:23;6.80;;;3.80;;
19619;SDS011;9957;52.282;21.110;2023-06-26T16:51:50;5.65;;;3.67;;
19619;SDS011;9957;52.282;21.110;2023-06-26T16:54:18;5.72;;;3.60;;
19619;SDS011;9957;52.282;21.110;2023-06-26T16:56:44;5.80;;;3.67;;
19619;SDS011;9957;52.282;21.110;2023-06-26T16:59:10;8.38;;;3.88;;
19619;SDS011;9957;52.282;21.110;2023-06-26T17:01:36;8.25;;;3.80;;
19619;SDS011;9957;52.282;21.110;2023-06-26T17:04:02;5.53;;;3.70;;
19619;SDS011;9957;52.282;21.110;2023-06-26T17:06:28;6.10;;;3.60;;
19619;SDS011;9957;52.282;21.110;2023-06-26T17:08:54;6.20;;;3.88;;
19619;SDS011;9957;52.282;21.110;2023-06-26T17:11:20;6.45;;;3.63;;
19619;SDS011;9957;52.282;21.110;2023-06-26T17:13:46;5.70;;;3.50;;
19619;SDS011;9957;52.282;21.110;2023-06-26T17:16:12;5.90;;;3.90;;
19619;SDS011;9957;52.282;21.110;2023-06-26T17:18:38;7.18;;;3.90;;
19619;SDS011;9957;52.282;21.110;2023-06-26T17:21:04;6.15;;;3.53;;
19619;SDS011;9957;52.282;21.110;2023-06-26T17:23:30;9.95;;;3.85;;
19619;SDS011;9957;52.282;21.110;2023-06-26T17:25:57;7.07;;;3.97;;
19619;SDS011;9957;52.282;21.110;2023-06-26T17:28:23;10.57;;;3.90;;
19619;SDS011;9957;52.282;21.110;2023-06-26T17:30:49;7.50;;;3.90;;
19619;SDS011;9957;52.282;21.110;2023-06-26T17:33:15;7.13;;;4.30;;
19619;SDS011;9957;52.282;21.110;2023-06-26T17:35:42;8.55;;;4.13;;
19619;SDS011;9957;52.282;21.110;2023-06-26T17:38:08;7.22;;;3.85;;
19619;SDS011;9957;52.282;21.110;2023-06-26T17:40:34;7.07;;;3.87;;
19619;SDS011;9957;52.282;21.110;2023-06-26T17:43:00;9.53;;;4.13;;
19619;SDS011;9957;52.282;21.110;2023-06-26T17:45:26;5.88;;;4.13;;
19619;SDS011;9957;52.282;21.110;2023-06-26T17:47:54;7.63;;;4.00;;
19619;SDS011;9957;52.282;21.110;2023-06-26T17:50:20;12.68;;;4.82;;
19619;SDS011;9957;52.282;21.110;2023-06-26T17:52:46;12.25;;;4.30;;
19619;SDS011;9957;52.282;21.110;2023-06-26T17:55:12;10.18;;;4.53;;
19619;SDS011;9957;52.282;21.110;2023-06-26T17:57:38;6.88;;;4.18;;
19619;SDS011;9957;52.282;21.110;2023-06-26T18:00:05;12.05;;;4.78;;
19619;SDS011;9957;52.282;21.110;2023-06-26T18:02:32;8.95;;;4.30;;
19619;SDS011;9957;52.282;21.110;2023-06-26T18:04:58;8.32;;;4.40;;
19619;SDS011;9957;52.282;21.110;2023-06-26T18:07:24;11.20;;;4.50;;
19619;SDS011;9957;52.282;21.110;2023-06-26T18:09:50;9.32;;;4.47;;
19619;SDS011;9957;52.282;21.110;2023-06-26T18:12:16;14.55;;;4.90;;
19619;SDS011;9957;52.282;21.110;2023-06-26T18:14:42;20.52;;;5.03;;
19619;SDS011;9957;52.282;21.110;2023-06-26T18:17:09;24.88;;;5.38;;
19619;SDS011;9957;52.282;21.110;2023-06-26T18:19:35;20.67;;;5.47;;
19619;SDS011;9957;52.282;21.110;2023-06-26T18:22:01;15.02;;;4.55;;
19619;SDS011;9957;52.282;21.110;2023-06-26T18:24:27;11.30;;;4.63;;
19619;SDS011;9957;52.282;21.110;2023-06-26T18:26:53;12.30;;;5.13;;
19619;SDS011;9957;52.282;21.110;2023-06-26T18:29:19;9.00;;;4.63;;
19619;SDS011;9957;52.282;21.110;2023-06-26T18:31:45;9.95;;;5.00;;
19619;SDS011;9957;52.282;21.110;2023-06-26T18:34:11;12.93;;;5.00;;
19619;SDS011;9957;52.282;21.110;2023-06-26T18:36:37;13.27;;;4.95;;
19619;SDS011;9957;52.282;21.110;2023-06-26T18:39:03;22.02;;;4.97;;
19619;SDS011;9957;52.282;21.110;2023-06-26T18:41:30;12.30;;;4.82;;
19619;SDS011;9957;52.282;21.110;2023-06-26T18:43:56;11.02;;;4.70;;
19619;SDS011;9957;52.282;21.110;2023-06-26T18:46:22;12.70;;;4.75;;
19619;SDS011;9957;52.282;21.110;2023-06-26T18:49:01;18.95;;;5.30;;
19619;SDS011;9957;52.282;21.110;2023-06-26T18:51:28;16.90;;;5.20;;
19619;SDS011;9957;52.282;21.110;2023-06-26T18:53:55;21.48;;;5.68;;
19619;SDS011;9957;52.282;21.110;2023-06-26T18:56:25;15.75;;;5.38;;
19619;SDS011;9957;52.282;21.110;2023-06-26T18:58:52;10.20;;;5.20;;
19619;SDS011;9957;52.282;21.110;2023-06-26T19:01:18;11.65;;;5.30;;
19619;SDS011;9957;52.282;21.110;2023-06-26T19:03:44;20.67;;;5.40;;
19619;SDS011;9957;52.282;21.110;2023-06-26T19:06:10;24.00;;;6.00;;
19619;SDS011;9957;52.282;21.110;2023-06-26T19:08:36;18.92;;;5.60;;
19619;SDS011;9957;52.282;21.110;2023-06-26T19:11:02;26.88;;;5.78;;
19619;SDS011;9957;52.282;21.110;2023-06-26T19:13:28;13.02;;;5.35;;
19619;SDS011;9957;52.282;21.110;2023-06-26T19:15:55;15.77;;;5.45;;
19619;SDS011;9957;52.282;21.110;2023-06-26T19:18:21;24.58;;;5.82;;
19619;SDS011;9957;52.282;21.110;2023-06-26T19:20:47;24.58;;;6.22;;
19619;SDS011;9957;52.282;21.110;2023-06-26T19:23:13;19.95;;;6.30;;
19619;SDS011;9957;52.282;21.110;2023-06-26T19:25:39;21.70;;;6.15;;
19619;SDS011;9957;52.282;21.110;2023-06-26T19:28:05;22.52;;;6.47;;
19619;SDS011;9957;52.282;21.110;2023-06-26T19:30:32;21.60;;;6.53;;
19619;SDS011;9957;52.282;21.110;2023-06-26T19:32:58;31.15;;;7.00;;
19619;SDS011;9957;52.282;21.110;2023-06-26T19:35:24;22.65;;;7.47;;
19619;SDS011;9957;52.282;21.110;2023-06-26T19:37:50;22.08;;;6.80;;
19619;SDS011;9957;52.282;21.110;2023-06-26T19:40:16;30.33;;;7.30;;
19619;SDS011;9957;52.282;21.110;2023-06-26T19:42:42;25.52;;;7.45;;
19619;SDS011;9957;52.282;21.110;2023-06-26T19:45:08;28.02;;;8.40;;
19619;SDS011;9957;52.282;21.110;2023-06-26T19:47:34;27.48;;;7.32;;
19619;SDS011;9957;52.282;21.110;2023-06-26T19:50:01;26.10;;;7.20;;
19619;SDS011;9957;52.282;21.110;2023-06-26T19:52:27;34.42;;;7.72;;
19619;SDS011;9957;52.282;21.110;2023-06-26T19:54:53;32.28;;;8.13;;
19619;SDS011;9957;52.282;21.110;2023-06-26T19:57:19;27.77;;;8.15;;
19619;SDS011;9957;52.282;21.110;2023-06-26T19:59:46;31.90;;;7.93;;
19619;SDS011;9957;52.282;21.110;2023-06-26T20:02:12;27.38;;;7.72;;
19619;SDS011;9957;52.282;21.110;2023-06-26T20:04:38;30.25;;;8.02;;
19619;SDS011;9957;52.282;21.110;2023-06-26T20:07:05;29.73;;;8.35;;
19619;SDS011;9957;52.282;21.110;2023-06-26T20:09:31;26.33;;;7.90;;
19619;SDS011;9957;52.282;21.110;2023-06-26T20:11:57;24.92;;;7.93;;
19619;SDS011;9957;52.282;21.110;2023-06-26T20:14:24;39.77;;;8.80;;
19619;SDS011;9957;52.282;21.110;2023-06-26T20:16:50;23.25;;;7.63;;
19619;SDS011;9957;52.282;21.110;2023-06-26T20:19:16;32.13;;;8.15;;
19619;SDS011;9957;52.282;21.110;2023-06-26T20:21:42;36.97;;;8.90;;
19619;SDS011;9957;52.282;21.110;2023-06-26T20:24:09;46.97;;;9.57;;
19619;SDS011;9957;52.282;21.110;2023-06-26T20:26:35;34.67;;;8.75;;
19619;SDS011;9957;52.282;21.110;2023-06-26T20:29:01;27.55;;;8.35;;
19619;SDS011;9957;52.282;21.110;2023-06-26T20:31:28;22.48;;;7.68;;
19619;SDS011;9957;52.282;21.110;2023-06-26T20:33:54;24.27;;;8.05;;
19619;SDS011;9957;52.282;21.110;2023-06-26T20:36:20;26.00;;;7.90;;
19619;SDS011;9957;52.282;21.110;2023-06-26T20:38:46;24.42;;;8.23;;
19619;SDS011;9957;52.282;21.110;2023-06-26T20:41:12;29.17;;;7.87;;
19619;SDS011;9957;52.282;21.110;2023-06-26T20:43:38;29.30;;;8.18;;
19619;SDS011;9957;52.282;21.110;2023-06-26T20:46:06;29.00;;;7.73;;
19619;SDS011;9957;52.282;21.110;2023-06-26T20:48:32;22.90;;;7.70;;
19619;SDS011;9957;52.282;21.110;2023-06-26T20:50:59;27.67;;;7.60;;
19619;SDS011;9957;52.282;21.110;2023-06-26T20:53:26;49.95;;;9.15;;
19619;SDS011;9957;52.282;21.110;2023-06-26T20:55:52;21.95;;;7.13;;
19619;SDS011;9957;52.282;21.110;2023-06-26T20:58:18;25.27;;;7.93;;
19619;SDS011;9957;52.282;21.110;2023-06-26T21:00:44;22.30;;;7.70;;
19619;SDS011;9957;52.282;21.110;2023-06-26T21:03:10;18.15;;;7.07;;
19619;SDS011;9957;52.282;21.110;2023-06-26T21:05:36;20.65;;;7.22;;
19619;SDS011;9957;52.282;21.110;2023-06-26T21:08:02;19.88;;;6.90;;
19619;SDS011;9957;52.282;21.110;2023-06-26T21:10:28;14.48;;;6.78;;
19619;SDS011;9957;52.282;21.110;2023-06-26T21:12:54;16.45;;;6.45;;
19619;SDS011;9957;52.282;21.110;2023-06-26T21:15:20;23.10;;;6.88;;
19619;SDS011;9957;52.282;21.110;2023-06-26T21:17:47;16.20;;;6.75;;
19619;SDS011;9957;52.282;21.110;2023-06-26T21:20:13;17.50;;;6.60;;
19619;SDS011;9957;52.282;21.110;2023-06-26T21:22:39;18.65;;;6.30;;
19619;SDS011;9957;52.282;21.110;2023-06-26T21:25:05;27.08;;;6.75;;
19619;SDS011;9957;52.282;21.110;2023-06-26T21:27:33;14.35;;;6.20;;
19619;SDS011;9957;52.282;21.110;2023-06-26T21:29:59;16.13;;;6.80;;
19619;SDS011;9957;52.282;21.110;2023-06-26T21:32:25;16.20;;;7.03;;
19619;SDS011;9957;52.282;21.110;2023-06-26T21:34:51;19.60;;;7.27;;
19619;SDS011;9957;52.282;21.110;2023-06-26T21:37:17;19.07;;;6.70;;
19619;SDS011;9957;52.282;21.110;2023-06-26T21:39:43;20.27;;;7.40;;
19619;SDS011;9957;52.282;21.110;2023-06-26T21:42:09;20.83;;;6.90;;
19619;SDS011;9957;52.282;21.110;2023-06-26T21:44:35;27.05;;;7.20;;
19619;SDS011;9957;52.282;21.110;2023-06-26T21:47:01;19.83;;;7.40;;
19619;SDS011;9957;52.282;21.110;2023-06-26T21:49:28;16.33;;;6.57;;
19619;SDS011;9957;52.282;21.110;2023-06-26T21:51:54;20.98;;;7.15;;
19619;SDS011;9957;52.282;21.110;2023-06-26T21:54:20;19.10;;;7.13;;
19619;SDS011;9957;52.282;21.110;2023-06-26T21:56:46;26.73;;;8.18;;
19619;SDS011;9957;52.282;21.110;2023-06-26T21:59:12;20.60;;;7.57;;
19619;SDS011;9957;52.282;21.110;2023-06-26T22:01:39;27.05;;;7.95;;
19619;SDS011;9957;52.282;21.110;2023-06-26T22:04:05;19.30;;;7.88;;
19619;SDS011;9957;52.282;21.110;2023-06-26T22:06:31;27.08;;;9.95;;
19619;SDS011;9957;52.282;21.110;2023-06-26T22:08:57;23.88;;;8.98;;
19619;SDS011;9957;52.282;21.110;2023-06-26T22:11:23;27.30;;;11.02;;
19619;SDS011;9957;52.282;21.110;2023-06-26T22:13:49;24.00;;;12.13;;
19619;SDS011;9957;52.282;21.110;2023-06-26T22:16:17;28.73;;;12.60;;
19619;SDS011;9957;52.282;21.110;2023-06-26T22:18:43;32.25;;;13.50;;
19619;SDS011;9957;52.282;21.110;2023-06-26T22:21:09;28.90;;;14.47;;
19619;SDS011;9957;52.282;21.110;2023-06-26T22:23:35;26.40;;;13.83;;
19619;SDS011;9957;52.282;21.110;2023-06-26T22:26:01;30.77;;;14.77;;
19619;SDS011;9957;52.282;21.110;2023-06-26T22:28:27;26.30;;;13.90;;
19619;SDS011;9957;52.282;21.110;2023-06-26T22:30:53;28.37;;;14.13;;
19619;SDS011;9957;52.282;21.110;2023-06-26T22:33:19;31.97;;;14.57;;
19619;SDS011;9957;52.282;21.110;2023-06-26T22:35:45;27.27;;;13.77;;
19619;SDS011;9957;52.282;21.110;2023-06-26T22:38:11;32.77;;;15.53;;
19619;SDS011;9957;52.282;21.110;2023-06-26T22:40:37;37.13;;;17.07;;
19619;SDS011;9957;52.282;21.110;2023-06-26T22:43:03;37.00;;;16.53;;
19619;SDS011;9957;52.282;21.110;2023-06-26T22:45:32;27.67;;;15.30;;
19619;SDS011;9957;52.282;21.110;2023-06-26T22:47:58;30.88;;;15.00;;
19619;SDS011;9957;52.282;21.110;2023-06-26T22:50:24;27.70;;;13.38;;
19619;SDS011;9957;52.282;21.110;2023-06-26T22:52:53;27.42;;;14.55;;
19619;SDS011;9957;52.282;21.110;2023-06-26T22:55:20;32.13;;;14.85;;
19619;SDS011;9957;52.282;21.110;2023-06-26T22:57:46;30.27;;;14.60;;
19619;SDS011;9957;52.282;21.110;2023-06-26T23:00:12;38.03;;;15.77;;
19619;SDS011;9957;52.282;21.110;2023-06-26T23:02:39;31.90;;;14.85;;
19619;SDS011;9957;52.282;21.110;2023-06-26T23:05:05;28.45;;;14.57;;
19619;SDS011;9957;52.282;21.110;2023-06-26T23:07:33;27.90;;;12.52;;
19619;SDS011;9957;52.282;21.110;2023-06-26T23:10:02;19.80;;;9.85;;
19619;SDS011;9957;52.282;21.110;2023-06-26T23:12:28;17.13;;;9.10;;
19619;SDS011;9957;52.282;21.110;2023-06-26T23:14:55;16.73;;;8.75;;
19619;SDS011;9957;52.282;21.110;2023-06-26T23:17:21;16.15;;;8.60;;
19619;SDS011;9957;52.282;21.110;2023-06-26T23:19:47;22.90;;;8.38;;
19619;SDS011;9957;52.282;21.110;2023-06-26T23:22:14;17.98;;;8.70;;
19619;SDS011;9957;52.282;21.110;2023-06-26T23:24:45;17.40;;;8.43;;
19619;SDS011;9957;52.282;21.110;2023-06-26T23:27:12;16.40;;;7.93;;
19619;SDS011;9957;52.282;21.110;2023-06-26T23:29:38;16.42;;;7.90;;
19619;SDS011;9957;52.282;21.110;2023-06-26T23:32:05;15.43;;;7.68;;
19619;SDS011;9957;52.282;21.110;2023-06-26T23:34:32;17.98;;;7.57;;
19619;SDS011;9957;52.282;21.110;2023-06-26T23:37:00;17.60;;;7.37;;
19619;SDS011;9957;52.282;21.110;2023-06-26T23:39:26;19.85;;;7.28;;
19619;SDS011;9957;52.282;21.110;2023-06-26T23:41:52;14.60;;;7.07;;
19619;SDS011;9957;52.282;21.110;2023-06-26T23:44:18;14.07;;;7.13;;
19619;SDS011;9957;52.282;21.110;2023-06-26T23:46:45;15.45;;;7.38;;
19619;SDS011;9957;52.282;21.110;2023-06-26T23:49:11;16.58;;;7.40;;
19619;SDS011;9957;52.282;21.110;2023-06-26T23:51:37;16.02;;;7.35;;
19619;SDS011;9957;52.282;21.110;2023-06-26T23:54:03;20.40;;;7.40;;
19619;SDS011;9957;52.282;21.110;2023-06-26T23:56:30;20.90;;;7.30;;
19619;SDS011;9957;52.282;21.110;2023-06-26T23:58:56;19.65;;;7.75;;
